Guide — WDE7328 — position and weather

sailwx.info

Track history (hours):
 
Tides and Currents Weather Stations Pressure Air Temp Water Temp Dewpoint Dewpoint Depression Visibility Wind Speed Wind Dir Waves Ship Positions

Guide

Owner: Crowley Marine Services, SEATTLE, WA. More information available from US FCC via Universal Licensing System and Coast Guard Vessel Documentation Center.

Last reported at 2015-Jul-08 06:33 UTC. Time now 2015-Jul-08 06:37 UTC.
Position N 47°15' W 122°26'.

Length 34 m; draft 5.1 m.

Type: Tug. MMSI: 366759530.

Date/timePositionNaut miles runAvg speedWind from/ knotsBaromVisibWave heightAir tempDewpointWater temp
2015-Jul-08 06:33N 47°15' W 122°26'0 0.0
2015-Jul-08 05:33N 47°15' W 122°26'2 2.1
2015-Jul-08 04:31N 47°15' W 122°23'3 2.9
2015-Jul-08 03:33N 47°17' W 122°26'2 2.0
2015-Jul-08 02:30N 47°16' W 122°24'0 0.5
2015-Jul-08 01:33N 47°16' W 122°24'2 1.7
2015-Jul-08 00:33N 47°15' W 122°26'0 0.0
2015-Jul-07 23:33N 47°15' W 122°26'0 0.0
2015-Jul-07 22:33N 47°15' W 122°26'0 0.0
2015-Jul-07 21:33N 47°15' W 122°26'0 0.0
2015-Jul-07 20:33N 47°15' W 122°26'0 0.0
2015-Jul-07 19:33N 47°15' W 122°26'0 0.0
2015-Jul-07 18:33N 47°15' W 122°26'0 0.0
2015-Jul-07 17:33N 47°15' W 122°26'0 0.0
2015-Jul-07 16:33N 47°15' W 122°26'0 0.0
2015-Jul-07 15:33N 47°15' W 122°26'0 0.0
2015-Jul-07 14:33N 47°15' W 122°26'0 0.0
2015-Jul-07 13:33N 47°15' W 122°26'0 0.0
2015-Jul-07 12:33N 47°15' W 122°26'2 1.8
2015-Jul-07 11:33N 47°16' W 122°23'1 0.8
2015-Jul-07 10:30N 47°15' W 122°23'2 1.7
2015-Jul-07 09:33N 47°16' W 122°24'0 0.4
2015-Jul-07 08:32N 47°17' W 122°25'1 1.2
2015-Jul-07 07:33N 47°18' W 122°26'0 0.0
2015-Jul-07 06:33N 47°18' W 122°26'7 6.7
2015-Jul-07 05:33N 47°24' W 122°22'1010.4
2015-Jul-07 04:33N 47°34' W 122°25'3 3.3
2015-Jul-07 03:33N 47°35' W 122°21'0 0.0
2015-Jul-07 02:33N 47°35' W 122°21'0 0.0
2015-Jul-07 01:33N 47°35' W 122°21'0 0.0
2015-Jul-07 00:33N 47°35' W 122°21'0 0.0
2015-Jul-06 23:33N 47°35' W 122°21'0 0.0
2015-Jul-06 22:25N 47°35' W 122°21'0 0.0
2015-Jul-06 21:33N 47°35' W 122°21'0 0.0
2015-Jul-06 20:33N 47°35' W 122°21'0 0.0
2015-Jul-06 19:33N 47°35' W 122°21'0 0.0
2015-Jul-06 18:33N 47°35' W 122°21'0 0.0
2015-Jul-06 17:33N 47°35' W 122°21'0 0.0
2015-Jul-06 16:33N 47°35' W 122°21'0 0.0
2015-Jul-06 15:33N 47°35' W 122°21'2 1.7
2015-Jul-06 14:33N 47°36' W 122°23'9 9.0
2015-Jul-06 13:33N 47°27' W 122°23'8 8.3
2015-Jul-06 12:33N 47°19' W 122°27'4 3.2
2015-Jul-06 11:22N 47°16' W 122°24'2 2.5
2015-Jul-06 10:33N 47°17' W 122°26'2 0.8
2015-Jul-06 08:28N 47°16' W 122°24'1 0.7
2015-Jul-06 07:33N 47°16' W 122°23'2 2.4
2015-Jul-06 06:33N 47°17' W 122°26'2 2.2
2015-Jul-06 05:33N 47°15' W 122°26'0 0.0
2015-Jul-06 04:33N 47°15' W 122°26'0 0.0
2015-Jul-06 03:33N 47°15' W 122°26'0 0.0
2015-Jul-06 02:33N 47°15' W 122°26'0 0.0
2015-Jul-06 01:33N 47°15' W 122°26'0 0.0
2015-Jul-06 00:32N 47°15' W 122°26'0 0.0
2015-Jul-05 23:32N 47°15' W 122°26'2 1.5
2015-Jul-05 22:29N 47°17' W 122°25'1 1.1
2015-Jul-05 21:33N 47°17' W 122°26'1 1.0
2015-Jul-05 20:08N 47°15' W 122°26'0 0.0
2015-Jul-05 19:32N 47°15' W 122°26'0 0.0
2015-Jul-05 18:33N 47°15' W 122°26'0 0.0
2015-Jul-05 17:33N 47°15' W 122°26'0 0.0
2015-Jul-05 16:33N 47°15' W 122°26'0 0.0
2015-Jul-05 15:33N 47°15' W 122°26'0 0.0
2015-Jul-05 14:31N 47°15' W 122°26'0 0.0
2015-Jul-05 13:33N 47°15' W 122°26'0 0.0
2015-Jul-05 12:33N 47°15' W 122°26'0 0.0
2015-Jul-05 11:33N 47°15' W 122°26'0 0.0
2015-Jul-05 10:33N 47°15' W 122°26'0 0.0
2015-Jul-05 09:33N 47°15' W 122°26'0 0.0
2015-Jul-05 08:33N 47°15' W 122°26'0 0.0
2015-Jul-05 07:24N 47°15' W 122°26'0 0.0
2015-Jul-05 06:33N 47°15' W 122°26'0 0.0
2015-Jul-05 05:30N 47°15' W 122°26'0 0.0
2015-Jul-05 04:33N 47°15' W 122°26'0 0.0
2015-Jul-05 03:33N 47°15' W 122°26'0 0.0
2015-Jul-05 02:31N 47°15' W 122°26'0 0.0
2015-Jul-05 01:33N 47°15' W 122°26'0 0.0
2015-Jul-05 00:31N 47°15' W 122°26'0 0.0
2015-Jul-04 22:31N 47°15' W 122°26'0 0.0
2015-Jul-04 20:33N 47°15' W 122°26'0 0.0
2015-Jul-04 19:33N 47°15' W 122°26'0 0.0
2015-Jul-04 18:33N 47°15' W 122°26'0 0.0
2015-Jul-04 17:33N 47°15' W 122°26'0 0.0
2015-Jul-04 15:33N 47°15' W 122°26'0 0.0
2015-Jul-04 14:32N 47°15' W 122°26'0 0.0
2015-Jul-04 13:33N 47°15' W 122°26'0 0.0
2015-Jul-04 12:33N 47°15' W 122°26'0 0.0
2015-Jul-04 11:33N 47°15' W 122°26'1 1.0
2015-Jul-04 10:33N 47°16' W 122°25'1 1.0
2015-Jul-04 09:33N 47°15' W 122°26'0 0.0
2015-Jul-04 08:33N 47°15' W 122°26'0 0.0
2015-Jul-04 07:33N 47°15' W 122°26'0 0.0
2015-Jul-04 06:33N 47°15' W 122°26'0 0.0
2015-Jul-04 05:33N 47°15' W 122°26'0 0.0
2015-Jul-04 04:33N 47°15' W 122°26'8 7.6
2015-Jul-04 03:33N 47°23' W 122°23'1010.1
2015-Jul-04 02:33N 47°32' W 122°27'9 9.0
2015-Jul-04 01:33N 47°41' W 122°28'9 8.5
2015-Jul-04 00:33N 47°50' W 122°28'3410.1
2015-Jul-03 21:13N 48°21' W 122°46'6 9.9
2015-Jul-03 20:33N 48°28' W 122°44'6 6.1
2015-Jul-03 19:33N 48°31' W 122°37'0 0.0
2015-Jul-03 01:24N 48°31' W 122°37'0 0.0
2015-Jul-03 00:33N 48°31' W 122°37'0 0.0
2015-Jul-02 23:33N 48°31' W 122°37'0 0.0
2015-Jul-02 22:34N 48°31' W 122°37'1 1.4
2015-Jul-02 21:33N 48°31' W 122°35'1 1.4
2015-Jul-02 20:33N 48°31' W 122°37'0 0.0
2015-Jul-02 19:33N 48°31' W 122°37'0 0.0
2015-Jul-02 18:33N 48°31' W 122°37'  
Track history (hours):
 
Tides and Currents Weather Stations Pressure Air Temp Water Temp Dewpoint Dewpoint Depression Visibility Wind Speed Wind Dir Waves Ship Positions

Guide

Owner: Crowley Marine Services, SEATTLE, WA. More information available from US FCC via Universal Licensing System and Coast Guard Vessel Documentation Center.

Last reported at 2015-Jul-08 06:33 UTC. Time now 2015-Jul-08 06:37 UTC.
Position N 47°15' W 122°26'.

Length 34 m; draft 5.1 m.

Type: Tug. MMSI: 366759530.

Date/timePositionNaut miles runAvg speedWind from/ knotsBaromVisibWave heightAir tempDewpointWater temp
2015-Jul-08 06:33N 47°15' W 122°26'0 0.0
2015-Jul-08 05:33N 47°15' W 122°26'2 2.1
2015-Jul-08 04:31N 47°15' W 122°23'3 2.9
2015-Jul-08 03:33N 47°17' W 122°26'2 2.0
2015-Jul-08 02:30N 47°16' W 122°24'0 0.5
2015-Jul-08 01:33N 47°16' W 122°24'2 1.7
2015-Jul-08 00:33N 47°15' W 122°26'0 0.0
2015-Jul-07 23:33N 47°15' W 122°26'0 0.0
2015-Jul-07 22:33N 47°15' W 122°26'0 0.0
2015-Jul-07 21:33N 47°15' W 122°26'0 0.0
2015-Jul-07 20:33N 47°15' W 122°26'0 0.0
2015-Jul-07 19:33N 47°15' W 122°26'0 0.0
2015-Jul-07 18:33N 47°15' W 122°26'0 0.0
2015-Jul-07 17:33N 47°15' W 122°26'0 0.0
2015-Jul-07 16:33N 47°15' W 122°26'0 0.0
2015-Jul-07 15:33N 47°15' W 122°26'0 0.0
2015-Jul-07 14:33N 47°15' W 122°26'0 0.0
2015-Jul-07 13:33N 47°15' W 122°26'0 0.0
2015-Jul-07 12:33N 47°15' W 122°26'2 1.8
2015-Jul-07 11:33N 47°16' W 122°23'1 0.8
2015-Jul-07 10:30N 47°15' W 122°23'2 1.7
2015-Jul-07 09:33N 47°16' W 122°24'0 0.4
2015-Jul-07 08:32N 47°17' W 122°25'1 1.2
2015-Jul-07 07:33N 47°18' W 122°26'0 0.0
2015-Jul-07 06:33N 47°18' W 122°26'7 6.7
2015-Jul-07 05:33N 47°24' W 122°22'1010.4
2015-Jul-07 04:33N 47°34' W 122°25'3 3.3
2015-Jul-07 03:33N 47°35' W 122°21'0 0.0
2015-Jul-07 02:33N 47°35' W 122°21'0 0.0
2015-Jul-07 01:33N 47°35' W 122°21'0 0.0
2015-Jul-07 00:33N 47°35' W 122°21'0 0.0
2015-Jul-06 23:33N 47°35' W 122°21'0 0.0
2015-Jul-06 22:25N 47°35' W 122°21'0 0.0
2015-Jul-06 21:33N 47°35' W 122°21'0 0.0
2015-Jul-06 20:33N 47°35' W 122°21'0 0.0
2015-Jul-06 19:33N 47°35' W 122°21'0 0.0
2015-Jul-06 18:33N 47°35' W 122°21'0 0.0
2015-Jul-06 17:33N 47°35' W 122°21'0 0.0
2015-Jul-06 16:33N 47°35' W 122°21'0 0.0
2015-Jul-06 15:33N 47°35' W 122°21'2 1.7
2015-Jul-06 14:33N 47°36' W 122°23'9 9.0
2015-Jul-06 13:33N 47°27' W 122°23'8 8.3
2015-Jul-06 12:33N 47°19' W 122°27'4 3.2
2015-Jul-06 11:22N 47°16' W 122°24'2 2.5
2015-Jul-06 10:33N 47°17' W 122°26'2 0.8
2015-Jul-06 08:28N 47°16' W 122°24'1 0.7
2015-Jul-06 07:33N 47°16' W 122°23'2 2.4
2015-Jul-06 06:33N 47°17' W 122°26'2 2.2
2015-Jul-06 05:33N 47°15' W 122°26'0 0.0
2015-Jul-06 04:33N 47°15' W 122°26'0 0.0
2015-Jul-06 03:33N 47°15' W 122°26'0 0.0
2015-Jul-06 02:33N 47°15' W 122°26'0 0.0
2015-Jul-06 01:33N 47°15' W 122°26'0 0.0
2015-Jul-06 00:32N 47°15' W 122°26'0 0.0
2015-Jul-05 23:32N 47°15' W 122°26'2 1.5
2015-Jul-05 22:29N 47°17' W 122°25'1 1.1
2015-Jul-05 21:33N 47°17' W 122°26'1 1.0
2015-Jul-05 20:08N 47°15' W 122°26'0 0.0
2015-Jul-05 19:32N 47°15' W 122°26'0 0.0
2015-Jul-05 18:33N 47°15' W 122°26'0 0.0
2015-Jul-05 17:33N 47°15' W 122°26'0 0.0
2015-Jul-05 16:33N 47°15' W 122°26'0 0.0
2015-Jul-05 15:33N 47°15' W 122°26'0 0.0
2015-Jul-05 14:31N 47°15' W 122°26'0 0.0
2015-Jul-05 13:33N 47°15' W 122°26'0 0.0
2015-Jul-05 12:33N 47°15' W 122°26'0 0.0
2015-Jul-05 11:33N 47°15' W 122°26'0 0.0
2015-Jul-05 10:33N 47°15' W 122°26'0 0.0
2015-Jul-05 09:33N 47°15' W 122°26'0 0.0
2015-Jul-05 08:33N 47°15' W 122°26'0 0.0
2015-Jul-05 07:24N 47°15' W 122°26'0 0.0
2015-Jul-05 06:33N 47°15' W 122°26'0 0.0
2015-Jul-05 05:30N 47°15' W 122°26'0 0.0
2015-Jul-05 04:33N 47°15' W 122°26'0 0.0
2015-Jul-05 03:33N 47°15' W 122°26'0 0.0
2015-Jul-05 02:31N 47°15' W 122°26'0 0.0
2015-Jul-05 01:33N 47°15' W 122°26'0 0.0
2015-Jul-05 00:31N 47°15' W 122°26'0 0.0
2015-Jul-04 22:31N 47°15' W 122°26'0 0.0
2015-Jul-04 20:33N 47°15' W 122°26'0 0.0
2015-Jul-04 19:33N 47°15' W 122°26'0 0.0
2015-Jul-04 18:33N 47°15' W 122°26'0 0.0
2015-Jul-04 17:33N 47°15' W 122°26'0 0.0
2015-Jul-04 15:33N 47°15' W 122°26'0 0.0
2015-Jul-04 14:32N 47°15' W 122°26'0 0.0
2015-Jul-04 13:33N 47°15' W 122°26'0 0.0
2015-Jul-04 12:33N 47°15' W 122°26'0 0.0
2015-Jul-04 11:33N 47°15' W 122°26'1 1.0
2015-Jul-04 10:33N 47°16' W 122°25'1 1.0
2015-Jul-04 09:33N 47°15' W 122°26'0 0.0
2015-Jul-04 08:33N 47°15' W 122°26'0 0.0
2015-Jul-04 07:33N 47°15' W 122°26'0 0.0
2015-Jul-04 06:33N 47°15' W 122°26'0 0.0
2015-Jul-04 05:33N 47°15' W 122°26'0 0.0
2015-Jul-04 04:33N 47°15' W 122°26'8 7.6
2015-Jul-04 03:33N 47°23' W 122°23'1010.1
2015-Jul-04 02:33N 47°32' W 122°27'9 9.0
2015-Jul-04 01:33N 47°41' W 122°28'9 8.5
2015-Jul-04 00:33N 47°50' W 122°28'3410.1
2015-Jul-03 21:13N 48°21' W 122°46'6 9.9
2015-Jul-03 20:33N 48°28' W 122°44'6 6.1
2015-Jul-03 19:33N 48°31' W 122°37'0 0.0
2015-Jul-03 01:24N 48°31' W 122°37'0 0.0
2015-Jul-03 00:33N 48°31' W 122°37'0 0.0
2015-Jul-02 23:33N 48°31' W 122°37'0 0.0
2015-Jul-02 22:34N 48°31' W 122°37'1 1.4
2015-Jul-02 21:33N 48°31' W 122°35'1 1.4
2015-Jul-02 20:33N 48°31' W 122°37'0 0.0
2015-Jul-02 19:33N 48°31' W 122°37'0 0.0
2015-Jul-02 18:33N 48°31' W 122°37'  

Dump ship's entire track history